Time;durP1;ratioP1;P1;durP2;ratioP2;P2;SDS_P1;SDS_P2;PMS_P1;PMS_P2;Temp;Humidity;BMP_temperature;BMP_pressure;BME280_temperature;BME280_humidity;BME280_pressure;Samples;Min_cycle;Max_cycle;Signal;HPM_P1;HPM_P2
2022/01/12 00:00:45;;;;;;;;;;;5.90;99.90;;;;;;5154203;27;20245;-77
2022/01/12 00:03:11;;;;;;;;;;;6.00;99.90;;;;;;5135537;27;20084;-77
2022/01/12 00:05:37;;;;;;;;;;;6.00;99.90;;;;;;5154370;27;19964;-78
2022/01/12 00:08:03;;;;;;;;;;;6.00;99.90;;;;;;5153844;27;20280;-77
2022/01/12 00:10:29;;;;;;;;;;;6.00;99.90;;;;;;5154356;27;19918;-76
2022/01/12 00:12:54;;;;;;;;;;;6.00;99.90;;;;;;5153516;27;19907;-78
2022/01/12 00:15:20;;;;;;;;;;;6.00;99.90;;;;;;5154979;27;19913;-78
2022/01/12 00:17:46;;;;;;;;;;;6.00;99.90;;;;;;5154726;27;19907;-77
2022/01/12 00:20:11;;;;;;;;;;;5.90;99.90;;;;;;5153701;27;20359;-77
2022/01/12 00:22:39;;;;;;;;;;;6.00;99.90;;;;;;5154418;27;19994;-77
2022/01/12 00:25:23;;;;;;;;;;;5.90;99.90;;;;;;5153602;27;19911;-77
2022/01/12 00:33:17;;;;;;;;;;;5.80;99.90;;;;;;5154191;27;19914;-78
2022/01/12 00:35:49;;;;;;;;;;;5.80;99.90;;;;;;5153979;27;19911;-78
2022/01/12 00:38:16;;;;;;;;;;;5.80;99.90;;;;;;5137089;27;19911;-78
2022/01/12 00:40:43;;;;;;;;;;;5.80;99.90;;;;;;5133515;27;19919;-77
2022/01/12 00:43:09;;;;;;;;;;;5.70;99.90;;;;;;5113805;27;19964;-77
2022/01/12 00:45:37;;;;;;;;;;;5.70;99.90;;;;;;5133094;27;19915;-77
2022/01/12 00:48:03;;;;;;;;;;;5.70;99.90;;;;;;5132336;27;19911;-77
2022/01/12 00:50:29;;;;;;;;;;;5.60;99.90;;;;;;5132915;27;19911;-77
2022/01/12 00:52:54;;;;;;;;;;;5.60;99.90;;;;;;5132474;27;19913;-76
2022/01/12 00:55:20;;;;;;;;;;;5.60;99.90;;;;;;5133052;27;19913;-77
2022/01/12 00:57:46;;;;;;;;;;;5.50;99.90;;;;;;5132783;27;20237;-78
2022/01/12 01:00:12;;;;;;;;;;;5.50;99.90;;;;;;5132480;27;20091;-78
2022/01/12 01:02:38;;;;;;;;;;;5.50;99.90;;;;;;5132030;27;20276;-78
2022/01/12 01:05:03;;;;;;;;;;;5.50;99.90;;;;;;5132022;27;19919;-77
2022/01/12 01:07:29;;;;;;;;;;;5.50;99.90;;;;;;5133094;27;19907;-78
2022/01/12 01:10:02;;;;;;;;;;;5.50;99.90;;;;;;5114080;27;20370;-76
2022/01/12 01:12:28;;;;;;;;;;;5.50;99.90;;;;;;5132843;27;19911;-77
2022/01/12 01:15:18;;;;;;;;;;;5.50;99.90;;;;;;5097289;28;19914;-75
2022/01/12 01:25:36;;;;;;;;;;;5.60;99.90;;;;;;5132980;28;19980;-77
2022/01/12 01:28:04;;;;;;;;;;;5.70;99.90;;;;;;5132344;28;20352;-78
2022/01/12 01:30:29;;;;;;;;;;;5.70;99.90;;;;;;5133352;28;19907;-78
2022/01/12 01:32:57;;;;;;;;;;;5.70;99.90;;;;;;5132911;28;19975;-76
2022/01/12 01:35:27;;;;;;;;;;;5.70;99.90;;;;;;5133273;28;19907;-77
2022/01/12 01:37:52;;;;;;;;;;;5.80;99.90;;;;;;5133338;28;19908;-77
2022/01/12 01:40:18;;;;;;;;;;;5.80;99.90;;;;;;5132231;28;19957;-78
2022/01/12 01:53:50;;;;;;;;;;;5.80;99.90;;;;;;5133084;28;19955;-79
2022/01/12 01:56:16;;;;;;;;;;;5.80;99.90;;;;;;5131332;27;20574;-77
2022/01/12 01:58:41;;;;;;;;;;;5.90;99.90;;;;;;5132453;28;20329;-77
2022/01/12 02:01:07;;;;;;;;;;;5.80;99.90;;;;;;5132492;28;19907;-77
2022/01/12 02:03:33;;;;;;;;;;;5.80;99.90;;;;;;5132762;28;20253;-77
2022/01/12 02:06:04;;;;;;;;;;;5.80;99.90;;;;;;5132342;27;20386;-76
2022/01/12 02:08:30;;;;;;;;;;;5.70;99.90;;;;;;5133047;28;19907;-78
2022/01/12 02:10:56;;;;;;;;;;;5.70;99.90;;;;;;5135414;28;19908;-76
2022/01/12 02:13:25;;;;;;;;;;;5.70;99.90;;;;;;5152094;27;20464;-78
2022/01/12 02:15:51;;;;;;;;;;;5.80;99.90;;;;;;5123965;27;19908;-78
2022/01/12 02:18:36;;;;;;;;;;;5.70;99.90;;;;;;5117637;27;20549;-77
2022/01/12 02:40:25;;;;;;;;;;;5.70;99.90;;;;;;5132270;27;19907;-77
2022/01/12 02:53:40;;;;;;;;;;;5.60;99.90;;;;;;5156114;27;20483;-76
2022/01/12 02:56:09;;;;;;;;;;;5.60;99.90;;;;;;5155996;27;19907;-76
2022/01/12 02:58:35;;;;;;;;;;;5.60;99.90;;;;;;5156779;27;19907;-77
2022/01/12 03:03:48;;;;;;;;;;;5.60;99.90;;;;;;5135862;27;19914;-78
2022/01/12 03:06:20;;;;;;;;;;;5.60;99.90;;;;;;5135007;27;20010;-77
2022/01/12 03:08:46;;;;;;;;;;;5.60;99.90;;;;;;5135964;27;19911;-76
2022/01/12 03:11:16;;;;;;;;;;;5.60;99.90;;;;;;5135045;27;19922;-77
2022/01/12 03:13:42;;;;;;;;;;;5.60;99.90;;;;;;5117103;27;19907;-77
2022/01/12 03:16:16;;;;;;;;;;;5.50;99.90;;;;;;5135313;27;19908;-78
2022/01/12 03:18:42;;;;;;;;;;;5.40;99.90;;;;;;5135669;27;20253;-77
2022/01/12 03:21:08;;;;;;;;;;;5.40;99.90;;;;;;5134616;27;20352;-77
2022/01/12 03:23:34;;;;;;;;;;;5.30;99.90;;;;;;5135355;27;19922;-77
2022/01/12 03:25:59;;;;;;;;;;;5.40;99.90;;;;;;5134518;27;19934;-77
2022/01/12 03:28:25;;;;;;;;;;;5.40;99.90;;;;;;5134585;27;19923;-77
2022/01/12 03:36:26;;;;;;;;;;;5.30;99.90;;;;;;5134426;27;19914;-77
2022/01/12 03:38:56;;;;;;;;;;;5.40;99.90;;;;;;5134945;27;20493;-76
2022/01/12 03:41:22;;;;;;;;;;;5.40;99.90;;;;;;5134280;27;19912;-77
2022/01/12 03:43:48;;;;;;;;;;;5.50;99.90;;;;;;5135209;27;19998;-77
2022/01/12 03:46:15;;;;;;;;;;;5.50;99.90;;;;;;5134043;27;20000;-76
2022/01/12 03:48:40;;;;;;;;;;;5.50;99.90;;;;;;5134967;27;19998;-77
2022/01/12 03:51:06;;;;;;;;;;;5.60;99.90;;;;;;5134133;27;19950;-76
2022/01/12 03:53:32;;;;;;;;;;;5.60;99.90;;;;;;5135127;27;19935;-77
2022/01/12 03:55:57;;;;;;;;;;;5.70;99.90;;;;;;5134871;27;19907;-78
2022/01/12 03:58:23;;;;;;;;;;;5.60;99.90;;;;;;5133736;27;19979;-77
2022/01/12 04:00:48;;;;;;;;;;;5.60;99.90;;;;;;5134602;27;19911;-77
2022/01/12 04:03:15;;;;;;;;;;;5.60;99.90;;;;;;5133664;27;20357;-77
2022/01/12 04:08:25;;;;;;;;;;;5.70;99.90;;;;;;5134029;27;19957;-77
2022/01/12 04:10:52;;;;;;;;;;;5.70;99.90;;;;;;5116404;27;19950;-77
2022/01/12 04:13:19;;;;;;;;;;;5.70;99.90;;;;;;5133819;27;20130;-77
2022/01/12 04:15:47;;;;;;;;;;;5.70;99.90;;;;;;5134868;27;19911;-76
2022/01/12 04:18:13;;;;;;;;;;;5.70;99.90;;;;;;5134061;27;20240;-75
2022/01/12 04:20:45;;;;;;;;;;;5.80;99.90;;;;;;5133954;27;19911;-76
2022/01/12 04:23:17;;;;;;;;;;;5.80;99.90;;;;;;5133527;27;19908;-75
2022/01/12 04:25:43;;;;;;;;;;;5.90;99.90;;;;;;5116520;27;19915;-75
2022/01/12 04:28:09;;;;;;;;;;;5.90;99.90;;;;;;5115157;27;19915;-74
2022/01/12 04:30:35;;;;;;;;;;;5.90;99.90;;;;;;5134382;27;19964;-75
2022/01/12 04:33:00;;;;;;;;;;;6.00;99.90;;;;;;5134102;27;19912;-76
2022/01/12 04:35:31;;;;;;;;;;;6.00;99.90;;;;;;5133307;27;19907;-76
2022/01/12 04:37:56;;;;;;;;;;;5.90;99.90;;;;;;5134130;27;19907;-75
2022/01/12 04:40:22;;;;;;;;;;;5.90;99.90;;;;;;5133233;27;19922;-76
2022/01/12 04:42:48;;;;;;;;;;;5.90;99.90;;;;;;5133767;27;20275;-76
2022/01/12 04:45:37;;;;;;;;;;;5.90;99.90;;;;;;5132814;27;19919;-76
2022/01/12 04:48:19;;;;;;;;;;;5.90;99.90;;;;;;5133148;27;19911;-76
2022/01/12 04:50:46;;;;;;;;;;;5.90;99.90;;;;;;5133882;27;19954;-76
2022/01/12 04:53:12;;;;;;;;;;;6.00;99.90;;;;;;5133107;27;19914;-75
2022/01/12 04:55:38;;;;;;;;;;;5.90;99.90;;;;;;5133927;27;19914;-76
2022/01/12 04:58:04;;;;;;;;;;;5.90;99.90;;;;;;5115509;27;19907;-76
2022/01/12 05:00:31;;;;;;;;;;;6.00;99.90;;;;;;5132858;27;20364;-76
2022/01/12 05:13:38;;;;;;;;;;;5.80;99.90;;;;;;5133622;27;19930;-76
2022/01/12 05:16:04;;;;;;;;;;;5.90;99.90;;;;;;5133861;27;19912;-76
2022/01/12 05:18:31;;;;;;;;;;;5.80;99.90;;;;;;5133019;28;19904;-76
2022/01/12 05:20:57;;;;;;;;;;;5.80;99.90;;;;;;5133487;28;19907;-77
2022/01/12 05:23:22;;;;;;;;;;;5.70;99.90;;;;;;5132530;27;19907;-75
2022/01/12 05:25:48;;;;;;;;;;;5.70;99.90;;;;;;5133346;28;19915;-75
2022/01/12 05:28:14;;;;;;;;;;;5.70;99.90;;;;;;5132353;28;19915;-75
2022/01/12 05:30:40;;;;;;;;;;;5.70;99.90;;;;;;5135876;28;19907;-76
2022/01/12 05:33:06;;;;;;;;;;;5.80;99.90;;;;;;5133225;28;19907;-77
2022/01/12 05:35:33;;;;;;;;;;;5.80;99.90;;;;;;5132716;28;19904;-76
2022/01/12 05:38:00;;;;;;;;;;;5.80;99.90;;;;;;5133358;28;19912;-76
2022/01/12 05:40:25;;;;;;;;;;;5.90;99.90;;;;;;5132009;28;19907;-77
2022/01/12 05:42:52;;;;;;;;;;;5.90;99.90;;;;;;5133421;28;19914;-77
2022/01/12 05:45:19;;;;;;;;;;;6.00;99.90;;;;;;5132486;28;19912;-77
2022/01/12 05:50:11;;;;;;;;;;;6.10;99.90;;;;;;5137202;27;19930;-75
2022/01/12 05:52:37;;;;;;;;;;;6.10;99.90;;;;;;5136795;27;20348;-78
2022/01/12 05:55:03;;;;;;;;;;;6.10;99.90;;;;;;5137209;27;20237;-79
2022/01/12 05:57:30;;;;;;;;;;;6.20;99.90;;;;;;5136491;27;20345;-78
2022/01/12 05:59:59;;;;;;;;;;;6.20;99.90;;;;;;5136880;27;19911;-78
2022/01/12 06:02:24;;;;;;;;;;;6.10;99.90;;;;;;5117644;27;20349;-77
2022/01/12 06:04:50;;;;;;;;;;;6.10;99.90;;;;;;5136775;27;19981;-79
2022/01/12 06:07:16;;;;;;;;;;;6.10;99.90;;;;;;5136209;27;20412;-77
2022/01/12 06:09:41;;;;;;;;;;;6.10;99.90;;;;;;5118821;27;19915;-77
2022/01/12 06:12:07;;;;;;;;;;;6.10;99.90;;;;;;5136782;27;19951;-77
2022/01/12 06:14:33;;;;;;;;;;;6.10;99.90;;;;;;5135965;27;19994;-78
2022/01/12 06:16:59;;;;;;;;;;;6.10;99.90;;;;;;5136779;27;20002;-78
2022/01/12 06:19:24;;;;;;;;;;;6.10;99.90;;;;;;5117949;27;19911;-77
2022/01/12 06:21:50;;;;;;;;;;;6.10;99.90;;;;;;5136464;27;19907;-77
2022/01/12 06:24:15;;;;;;;;;;;6.10;99.90;;;;;;5136040;27;20344;-75
2022/01/12 06:26:43;;;;;;;;;;;6.10;99.90;;;;;;5140164;27;20338;-77
2022/01/12 06:31:34;;;;;;;;;;;6.20;99.90;;;;;;5137650;27;20465;-78
2022/01/12 06:34:00;;;;;;;;;;;6.20;99.90;;;;;;5136232;27;19935;-78
2022/01/12 06:36:26;;;;;;;;;;;6.20;99.90;;;;;;5135418;27;19911;-77
2022/01/12 06:38:51;;;;;;;;;;;6.20;99.90;;;;;;5136143;27;19915;-78
2022/01/12 06:41:18;;;;;;;;;;;6.30;99.90;;;;;;5135892;27;19907;-76
2022/01/12 06:43:44;;;;;;;;;;;6.30;99.90;;;;;;5136352;27;19908;-77
2022/01/12 06:46:10;;;;;;;;;;;6.30;99.90;;;;;;5135930;27;19964;-78
2022/01/12 06:48:36;;;;;;;;;;;6.30;99.90;;;;;;5135230;27;19994;-77
2022/01/12 06:51:02;;;;;;;;;;;6.30;99.90;;;;;;5136498;27;20382;-77
2022/01/12 06:53:27;;;;;;;;;;;6.30;99.90;;;;;;5116834;27;20268;-78
2022/01/12 06:55:53;;;;;;;;;;;6.30;99.90;;;;;;5135754;27;20004;-79
2022/01/12 06:58:18;;;;;;;;;;;6.40;99.90;;;;;;5134796;27;19911;-75
2022/01/12 07:00:44;;;;;;;;;;;6.40;99.90;;;;;;5134436;27;20378;-77
2022/01/12 07:03:10;;;;;;;;;;;6.40;99.90;;;;;;5135446;27;20391;-78
2022/01/12 07:05:35;;;;;;;;;;;6.40;99.90;;;;;;5134643;27;19920;-78
2022/01/12 07:08:01;;;;;;;;;;;6.40;99.90;;;;;;5135767;27;20029;-79
2022/01/12 07:10:27;;;;;;;;;;;6.40;99.90;;;;;;5134722;27;19907;-77
2022/01/12 07:12:52;;;;;;;;;;;6.40;99.90;;;;;;5147958;27;20017;-77
2022/01/12 07:15:18;;;;;;;;;;;6.40;99.90;;;;;;5156060;27;20156;-76
2022/01/12 07:17:43;;;;;;;;;;;6.40;99.90;;;;;;5155926;27;19907;-78
2022/01/12 07:20:09;;;;;;;;;;;6.40;99.90;;;;;;5156323;27;19920;-77
2022/01/12 07:22:35;;;;;;;;;;;6.40;99.90;;;;;;5155503;27;20348;-77
2022/01/12 07:25:01;;;;;;;;;;;6.40;99.90;;;;;;5155997;27;19956;-77
2022/01/12 07:27:26;;;;;;;;;;;6.30;99.90;;;;;;5155757;27;20358;-78
2022/01/12 07:29:52;;;;;;;;;;;6.30;99.90;;;;;;5156134;27;19908;-77
2022/01/12 07:32:18;;;;;;;;;;;6.30;99.90;;;;;;5155611;27;20002;-76
2022/01/12 07:34:43;;;;;;;;;;;6.30;99.90;;;;;;5155823;27;20001;-77
2022/01/12 07:37:09;;;;;;;;;;;6.30;99.90;;;;;;5156042;27;19911;-77
2022/01/12 07:39:34;;;;;;;;;;;6.30;99.90;;;;;;5154923;27;19907;-77
2022/01/12 07:42:00;;;;;;;;;;;6.30;99.90;;;;;;5155632;27;20363;-78
2022/01/12 07:44:25;;;;;;;;;;;6.30;99.90;;;;;;5154682;27;19910;-75
2022/01/12 07:46:51;;;;;;;;;;;6.40;99.90;;;;;;5155432;27;19911;-77
2022/01/12 07:49:16;;;;;;;;;;;6.40;99.90;;;;;;5139313;27;19912;-77
2022/01/12 07:51:42;;;;;;;;;;;6.40;99.90;;;;;;5134534;27;20108;-76
2022/01/12 07:54:07;;;;;;;;;;;6.30;99.90;;;;;;5116446;27;19908;-77
2022/01/12 07:56:33;;;;;;;;;;;6.30;99.90;;;;;;5145352;27;20006;-76
2022/01/12 07:58:59;;;;;;;;;;;6.30;99.90;;;;;;5146395;27;19912;-77
2022/01/12 08:01:24;;;;;;;;;;;6.30;99.90;;;;;;5135794;27;19915;-77
2022/01/12 08:03:50;;;;;;;;;;;6.30;99.90;;;;;;5134220;27;19993;-78
2022/01/12 08:06:16;;;;;;;;;;;6.20;99.90;;;;;;5134368;27;19930;-76
2022/01/12 08:08:41;;;;;;;;;;;6.20;99.90;;;;;;5115669;27;19904;-77
2022/01/12 08:11:07;;;;;;;;;;;6.30;99.90;;;;;;5133937;27;19914;-78
2022/01/12 08:13:33;;;;;;;;;;;6.30;99.90;;;;;;5133686;27;19960;-75
2022/01/12 08:15:58;;;;;;;;;;;6.20;99.90;;;;;;5134494;27;19915;-77
2022/01/12 08:18:24;;;;;;;;;;;6.30;99.90;;;;;;5138627;27;20320;-74
2022/01/12 08:20:50;;;;;;;;;;;6.20;99.90;;;;;;5142735;27;19919;-76
2022/01/12 08:23:15;;;;;;;;;;;6.20;99.90;;;;;;5142091;27;19915;-76
2022/01/12 08:25:41;;;;;;;;;;;6.20;99.90;;;;;;5124202;27;19930;-77
2022/01/12 08:28:07;;;;;;;;;;;6.20;99.90;;;;;;5134215;27;19911;-76
2022/01/12 08:30:34;;;;;;;;;;;6.30;99.90;;;;;;5133373;27;19915;-78
2022/01/12 08:33:00;;;;;;;;;;;6.30;99.90;;;;;;5133835;27;19914;-76
2022/01/12 08:35:27;;;;;;;;;;;6.30;99.90;;;;;;5132907;27;19907;-75
2022/01/12 08:37:53;;;;;;;;;;;6.40;99.90;;;;;;5134055;27;19912;-77
2022/01/12 08:40:19;;;;;;;;;;;6.50;99.90;;;;;;5134015;27;19911;-77
2022/01/12 08:42:45;;;;;;;;;;;6.50;99.90;;;;;;5137801;27;20553;-76
2022/01/12 08:45:11;;;;;;;;;;;6.60;99.90;;;;;;5138537;27;19994;-76
2022/01/12 08:47:37;;;;;;;;;;;6.60;99.90;;;;;;5146287;27;19918;-76
2022/01/12 08:50:03;;;;;;;;;;;6.70;99.90;;;;;;5170614;27;19907;-77
2022/01/12 08:52:30;;;;;;;;;;;6.70;99.90;;;;;;5163316;27;19974;-75
2022/01/12 08:54:55;;;;;;;;;;;6.80;99.90;;;;;;5160574;27;19950;-77
2022/01/12 08:57:21;;;;;;;;;;;6.70;99.90;;;;;;5135381;27;20374;-77
2022/01/12 08:59:47;;;;;;;;;;;6.70;99.90;;;;;;5151948;27;20054;-77
2022/01/12 09:02:14;;;;;;;;;;;6.70;99.90;;;;;;5143323;27;20355;-77
2022/01/12 09:04:41;;;;;;;;;;;6.70;99.90;;;;;;5132434;27;19919;-77
2022/01/12 09:07:07;;;;;;;;;;;6.70;99.90;;;;;;5132978;27;19908;-77
2022/01/12 09:09:32;;;;;;;;;;;6.80;99.90;;;;;;5133963;27;20253;-77
2022/01/12 09:11:58;;;;;;;;;;;6.80;99.90;;;;;;5154139;27;20388;-76
2022/01/12 09:14:24;;;;;;;;;;;6.80;99.90;;;;;;5135170;27;19907;-75
2022/01/12 09:16:56;;;;;;;;;;;6.90;99.90;;;;;;5153346;27;20323;-77
2022/01/12 09:19:22;;;;;;;;;;;6.90;99.90;;;;;;5153588;27;19914;-77
2022/01/12 09:21:48;;;;;;;;;;;6.90;99.90;;;;;;5152894;27;20550;-76
2022/01/12 09:24:13;;;;;;;;;;;6.90;99.90;;;;;;5150384;27;19933;-75
2022/01/12 09:26:39;;;;;;;;;;;7.00;99.90;;;;;;5153081;27;19919;-77
2022/01/12 09:29:05;;;;;;;;;;;7.00;99.90;;;;;;5153502;27;19908;-76
2022/01/12 09:31:30;;;;;;;;;;;7.00;99.90;;;;;;5152117;27;19911;-76
2022/01/12 09:33:56;;;;;;;;;;;7.00;99.90;;;;;;5149080;27;19911;-77
2022/01/12 09:36:22;;;;;;;;;;;7.00;99.90;;;;;;5135726;27;19912;-76
2022/01/12 09:38:48;;;;;;;;;;;7.10;99.90;;;;;;5131452;28;19903;-76
2022/01/12 09:41:14;;;;;;;;;;;7.10;99.90;;;;;;5132731;28;20268;-76
2022/01/12 09:43:42;;;;;;;;;;;7.10;99.90;;;;;;5131990;28;19908;-77
2022/01/12 09:46:08;;;;;;;;;;;7.20;99.90;;;;;;5132879;28;19965;-76
2022/01/12 09:48:34;;;;;;;;;;;7.20;99.90;;;;;;5132084;28;20267;-75
2022/01/12 09:51:03;;;;;;;;;;;7.30;99.90;;;;;;5132972;28;19907;-76
2022/01/12 09:53:29;;;;;;;;;;;7.30;99.90;;;;;;5137581;27;19916;-76
2022/01/12 09:55:55;;;;;;;;;;;7.30;99.90;;;;;;5143093;27;19913;-76
2022/01/12 09:58:21;;;;;;;;;;;7.30;99.90;;;;;;5149108;27;20374;-76
2022/01/12 10:00:59;;;;;;;;;;;7.30;99.90;;;;;;5152523;27;19910;-76
2022/01/12 10:03:26;;;;;;;;;;;7.30;99.90;;;;;;5152622;27;19907;-76
2022/01/12 10:05:53;;;;;;;;;;;7.20;99.90;;;;;;5153227;27;19925;-76
2022/01/12 10:08:18;;;;;;;;;;;7.20;99.90;;;;;;5152986;27;19911;-75
2022/01/12 10:11:04;;;;;;;;;;;7.30;99.90;;;;;;5151863;27;19968;-76
2022/01/12 10:13:30;;;;;;;;;;;7.30;99.90;;;;;;5151094;27;20025;-76
2022/01/12 10:15:55;;;;;;;;;;;7.30;99.90;;;;;;5152440;27;20359;-75
2022/01/12 10:18:24;;;;;;;;;;;7.40;99.90;;;;;;5152415;27;20363;-77
2022/01/12 10:20:50;;;;;;;;;;;7.50;99.90;;;;;;5138466;27;19938;-76
2022/01/12 10:23:16;;;;;;;;;;;7.60;99.90;;;;;;5132119;28;19911;-75
2022/01/12 10:25:46;;;;;;;;;;;7.60;99.90;;;;;;5112750;28;19911;-76
2022/01/12 10:28:12;;;;;;;;;;;7.60;99.90;;;;;;5132292;28;19919;-76
2022/01/12 10:30:38;;;;;;;;;;;7.70;99.90;;;;;;5131707;28;19952;-76
2022/01/12 10:33:05;;;;;;;;;;;7.70;99.90;;;;;;5132177;28;19911;-78
2022/01/12 10:35:32;;;;;;;;;;;7.70;99.90;;;;;;5135020;27;20022;-76
2022/01/12 10:38:04;;;;;;;;;;;7.90;99.90;;;;;;5136168;27;20353;-76
2022/01/12 10:40:30;;;;;;;;;;;7.90;99.90;;;;;;5136390;27;19907;-75
2022/01/12 10:42:55;;;;;;;;;;;8.00;99.90;;;;;;5149931;27;19943;-76
2022/01/12 10:45:21;;;;;;;;;;;8.10;99.90;;;;;;5153940;27;19927;-76
2022/01/12 10:47:46;;;;;;;;;;;8.10;99.90;;;;;;5154644;27;19911;-76
2022/01/12 10:50:12;;;;;;;;;;;8.10;99.90;;;;;;5156544;27;19952;-77
2022/01/12 10:52:48;;;;;;;;;;;8.20;99.90;;;;;;5155259;27;19907;-77
2022/01/12 10:55:15;;;;;;;;;;;8.30;99.90;;;;;;5145811;27;19956;-77
2022/01/12 10:57:44;;;;;;;;;;;8.40;99.90;;;;;;5142775;27;19980;-77
2022/01/12 11:00:19;;;;;;;;;;;8.50;99.90;;;;;;5135748;27;19907;-77
2022/01/12 11:02:54;;;;;;;;;;;8.50;99.90;;;;;;5134901;27;20752;-77
2022/01/12 11:05:21;;;;;;;;;;;8.60;99.90;;;;;;5138040;27;19919;-77
2022/01/12 11:07:48;;;;;;;;;;;8.70;99.90;;;;;;5134251;27;19921;-77
2022/01/12 11:10:14;;;;;;;;;;;8.60;99.90;;;;;;5135455;27;19914;-77
2022/01/12 11:12:40;;;;;;;;;;;8.60;99.90;;;;;;5134338;27;19907;-77
2022/01/12 11:15:10;;;;;;;;;;;8.70;99.90;;;;;;5135320;27;19907;-77
2022/01/12 11:17:38;;;;;;;;;;;8.70;99.90;;;;;;5134441;27;19907;-76
2022/01/12 11:20:04;;;;;;;;;;;8.70;99.90;;;;;;5137362;27;19984;-75
2022/01/12 11:22:29;;;;;;;;;;;8.70;99.90;;;;;;5140134;27;19915;-90
2022/01/12 11:24:55;;;;;;;;;;;8.70;99.90;;;;;;5126897;27;19918;-76
2022/01/12 11:27:21;;;;;;;;;;;8.70;99.90;;;;;;5139456;27;19916;-77
2022/01/12 11:29:47;;;;;;;;;;;8.70;99.90;;;;;;5134457;27;20002;-77
2022/01/12 11:32:20;;;;;;;;;;;8.70;99.90;;;;;;5135205;27;19915;-76
2022/01/12 11:34:45;;;;;;;;;;;8.70;99.90;;;;;;5116072;27;20505;-77
2022/01/12 11:37:12;;;;;;;;;;;8.60;99.90;;;;;;5134805;27;19907;-77
2022/01/12 11:39:38;;;;;;;;;;;8.60;99.90;;;;;;5134003;27;20020;-76
2022/01/12 11:42:03;;;;;;;;;;;8.60;99.90;;;;;;5134630;27;19998;-76
2022/01/12 11:44:34;;;;;;;;;;;8.60;99.90;;;;;;5134377;27;19911;-74
2022/01/12 11:47:02;;;;;;;;;;;8.50;99.90;;;;;;5133982;27;20263;-76
2022/01/12 11:49:27;;;;;;;;;;;8.60;99.90;;;;;;5133372;27;19992;-75
2022/01/12 11:51:59;;;;;;;;;;;8.60;99.90;;;;;;5115587;27;20354;-76
2022/01/12 11:54:32;;;;;;;;;;;8.70;99.90;;;;;;5134760;27;19969;-76
2022/01/12 11:57:02;;;;;;;;;;;8.70;99.90;;;;;;5134281;27;20379;-77
2022/01/12 11:59:29;;;;;;;;;;;8.70;99.90;;;;;;5115298;27;20007;-74
2022/01/12 12:02:08;;;;;;;;;;;8.70;99.90;;;;;;5134005;27;19907;-76
2022/01/12 12:04:34;;;;;;;;;;;8.70;99.90;;;;;;5132666;27;19911;-77
2022/01/12 12:07:07;;;;;;;;;;;8.70;99.90;;;;;;5134106;27;19915;-76
2022/01/12 12:09:37;;;;;;;;;;;8.80;99.90;;;;;;5132855;27;19969;-75
2022/01/12 12:12:09;;;;;;;;;;;8.80;99.90;;;;;;5133222;27;19911;-78
2022/01/12 12:14:35;;;;;;;;;;;8.80;99.90;;;;;;5132460;27;20420;-76
2022/01/12 12:17:00;;;;;;;;;;;8.80;99.90;;;;;;5133236;27;19939;-76
2022/01/12 12:19:27;;;;;;;;;;;8.80;99.90;;;;;;5097596;27;20010;-77
2022/01/12 12:21:53;;;;;;;;;;;8.80;99.90;;;;;;5138077;27;19911;-75
2022/01/12 12:24:18;;;;;;;;;;;8.80;99.90;;;;;;5141759;27;19963;-76
2022/01/12 12:26:48;;;;;;;;;;;8.80;99.90;;;;;;5146773;27;20009;-76
2022/01/12 12:29:15;;;;;;;;;;;8.90;99.90;;;;;;5135817;27;19964;-76
2022/01/12 12:31:45;;;;;;;;;;;9.10;99.90;;;;;;5138329;27;19998;-76
2022/01/12 12:34:11;;;;;;;;;;;9.10;99.90;;;;;;5142460;27;19907;-77
2022/01/12 12:36:36;;;;;;;;;;;9.20;99.90;;;;;;5146350;27;19998;-76
2022/01/12 12:39:09;;;;;;;;;;;9.20;99.90;;;;;;5153394;27;19922;-76
2022/01/12 12:41:39;;;;;;;;;;;9.20;99.90;;;;;;5148107;27;19911;-76
2022/01/12 12:44:05;;;;;;;;;;;9.20;99.90;;;;;;5142955;27;20018;-76
2022/01/12 12:46:31;;;;;;;;;;;9.30;99.90;;;;;;5138728;27;19922;-75
2022/01/12 12:48:56;;;;;;;;;;;9.30;99.90;;;;;;5141470;27;20006;-76
2022/01/12 12:51:22;;;;;;;;;;;9.30;99.90;;;;;;5133524;27;19907;-76
2022/01/12 12:53:52;;;;;;;;;;;9.30;99.90;;;;;;5132090;27;19903;-77
2022/01/12 12:56:20;;;;;;;;;;;9.30;99.90;;;;;;5132956;27;20363;-76
2022/01/12 12:58:50;;;;;;;;;;;9.30;99.90;;;;;;5132177;27;19908;-77
2022/01/12 13:01:16;;;;;;;;;;;9.40;99.90;;;;;;5132984;27;19907;-77
2022/01/12 13:03:49;;;;;;;;;;;9.40;99.90;;;;;;5137560;27;19915;-75
2022/01/12 13:06:18;;;;;;;;;;;9.30;99.90;;;;;;5132991;27;19971;-76
2022/01/12 13:08:55;;;;;;;;;;;9.30;99.90;;;;;;5133935;27;19912;-75
2022/01/12 13:11:26;;;;;;;;;;;9.30;99.90;;;;;;5132339;27;19912;-76
2022/01/12 13:13:56;;;;;;;;;;;9.30;99.90;;;;;;5151741;27;19908;-76
2022/01/12 13:16:24;;;;;;;;;;;9.40;99.90;;;;;;5153673;27;19907;-76
2022/01/12 13:18:49;;;;;;;;;;;9.50;99.90;;;;;;5153098;27;19994;-76
2022/01/12 13:21:16;;;;;;;;;;;9.40;99.90;;;;;;5153726;27;20348;-76
2022/01/12 13:23:46;;;;;;;;;;;9.40;99.90;;;;;;5156431;27;19914;-75
2022/01/12 13:26:13;;;;;;;;;;;9.40;99.90;;;;;;5154392;27;19916;-76
2022/01/12 13:28:39;;;;;;;;;;;9.40;99.90;;;;;;5145149;27;19911;-76
2022/01/12 13:31:10;;;;;;;;;;;9.50;99.90;;;;;;5141744;27;19907;-77
2022/01/12 13:33:39;;;;;;;;;;;9.50;99.90;;;;;;5129325;28;19911;-76
2022/01/12 13:36:14;;;;;;;;;;;9.50;99.90;;;;;;5131502;28;19990;-77
2022/01/12 13:38:40;;;;;;;;;;;9.50;99.90;;;;;;5138752;27;19960;-76
2022/01/12 13:41:07;;;;;;;;;;;9.50;99.90;;;;;;5140900;27;20399;-76
2022/01/12 13:43:32;;;;;;;;;;;9.50;99.90;;;;;;5143457;27;20309;-75
2022/01/12 13:46:04;;;;;;;;;;;9.60;99.90;;;;;;5133980;27;19918;-76
2022/01/12 13:48:31;;;;;;;;;;;9.50;99.90;;;;;;5134111;27;20345;-77
2022/01/12 13:50:58;;;;;;;;;;;9.60;99.90;;;;;;5132760;28;19951;-76
2022/01/12 13:53:54;;;;;;;;;;;9.50;99.90;;;;;;5132415;28;19914;-76
2022/01/12 13:56:19;;;;;;;;;;;9.50;99.90;;;;;;5117461;27;19969;-77
2022/01/12 13:58:45;;;;;;;;;;;9.50;99.90;;;;;;5121874;27;19912;-76
2022/01/12 14:01:11;;;;;;;;;;;9.50;99.90;;;;;;5142399;27;19907;-77
2022/01/12 14:03:41;;;;;;;;;;;9.50;99.90;;;;;;5142010;27;19918;-77
2022/01/12 14:06:17;;;;;;;;;;;9.50;99.90;;;;;;5137270;27;19920;-77
2022/01/12 14:08:51;;;;;;;;;;;9.50;99.90;;;;;;5137675;27;20009;-79
2022/01/12 14:11:17;;;;;;;;;;;9.50;99.90;;;;;;5156903;27;19911;-75
2022/01/12 14:13:43;;;;;;;;;;;9.50;99.90;;;;;;5156307;27;19934;-76
2022/01/12 14:16:09;;;;;;;;;;;9.50;99.90;;;;;;5153245;27;19967;-77
2022/01/12 14:18:35;;;;;;;;;;;9.50;99.90;;;;;;5156137;27;20256;-77
2022/01/12 14:21:01;;;;;;;;;;;9.50;99.90;;;;;;5144435;27;19963;-76
2022/01/12 14:23:36;;;;;;;;;;;9.60;99.90;;;;;;5136190;27;20374;-76
2022/01/12 14:26:02;;;;;;;;;;;9.60;99.90;;;;;;5140288;27;19915;-77
2022/01/12 14:28:29;;;;;;;;;;;9.50;99.90;;;;;;5156787;27;19918;-76
2022/01/12 14:30:54;;;;;;;;;;;9.50;99.90;;;;;;5156465;27;20363;-78
2022/01/12 14:33:21;;;;;;;;;;;9.50;99.90;;;;;;5156433;27;19914;-76
2022/01/12 14:35:47;;;;;;;;;;;9.40;99.90;;;;;;5152499;27;19912;-79
2022/01/12 14:38:13;;;;;;;;;;;9.30;99.90;;;;;;5145623;27;19911;-78
2022/01/12 14:40:39;;;;;;;;;;;9.40;99.90;;;;;;5143866;27;20006;-77
2022/01/12 14:43:06;;;;;;;;;;;9.40;99.90;;;;;;5142863;27;19936;-77
2022/01/12 14:45:33;;;;;;;;;;;9.30;99.90;;;;;;5146141;27;19950;-76
2022/01/12 14:48:00;;;;;;;;;;;9.30;99.90;;;;;;5139534;27;19919;-76
2022/01/12 14:50:27;;;;;;;;;;;9.30;99.90;;;;;;5146380;27;20301;-78
2022/01/12 14:52:54;;;;;;;;;;;9.30;99.90;;;;;;5144221;27;19921;-76
2022/01/12 14:55:20;;;;;;;;;;;9.30;99.90;;;;;;5143917;27;19998;-77
2022/01/12 14:57:46;;;;;;;;;;;9.20;99.90;;;;;;5144157;27;19919;-76
2022/01/12 15:00:16;;;;;;;;;;;9.30;99.90;;;;;;5152483;27;19912;-76
2022/01/12 15:02:45;;;;;;;;;;;9.30;99.90;;;;;;5143376;27;19918;-76
2022/01/12 15:05:10;;;;;;;;;;;9.30;99.90;;;;;;5141612;27;19920;-77
2022/01/12 15:07:36;;;;;;;;;;;9.30;99.90;;;;;;5155321;27;19994;-77
2022/01/12 15:10:02;;;;;;;;;;;9.20;99.90;;;;;;5146874;27;19911;-78
2022/01/12 15:12:36;;;;;;;;;;;9.20;99.90;;;;;;5143073;27;19908;-76
2022/01/12 15:15:01;;;;;;;;;;;9.20;99.90;;;;;;5134991;27;19907;-77
2022/01/12 15:17:36;;;;;;;;;;;9.10;99.90;;;;;;5135005;27;19908;-77
2022/01/12 15:20:07;;;;;;;;;;;9.10;99.90;;;;;;5134571;27;19908;-77
2022/01/12 15:22:33;;;;;;;;;;;9.10;99.90;;;;;;5133656;27;19915;-78
2022/01/12 15:24:58;;;;;;;;;;;9.00;99.90;;;;;;5135045;27;20443;-78
2022/01/12 15:27:24;;;;;;;;;;;8.90;99.90;;;;;;5116476;27;19947;-77
2022/01/12 15:29:50;;;;;;;;;;;8.90;99.90;;;;;;5134204;27;19907;-77
2022/01/12 15:32:15;;;;;;;;;;;8.80;99.90;;;;;;5116501;27;19933;-77
2022/01/12 15:34:41;;;;;;;;;;;8.80;99.90;;;;;;5134533;27;19914;-77
2022/01/12 15:37:07;;;;;;;;;;;8.80;99.90;;;;;;5134480;27;19920;-78
2022/01/12 15:39:32;;;;;;;;;;;8.70;99.90;;;;;;5133837;27;19965;-76
2022/01/12 15:41:58;;;;;;;;;;;8.70;99.90;;;;;;5139330;27;20288;-78
2022/01/12 15:44:24;;;;;;;;;;;8.70;99.90;;;;;;5155534;27;19914;-77
2022/01/12 15:46:49;;;;;;;;;;;8.60;99.90;;;;;;5154489;27;19971;-77
2022/01/12 15:49:16;;;;;;;;;;;8.50;99.90;;;;;;5153695;27;19911;-78
2022/01/12 15:51:42;;;;;;;;;;;8.40;99.90;;;;;;5142823;27;19986;-76